Troy, Virginia
Current Conditions -  °F | °C
As of 11:15 AM on Monday 26 Jan 2015 (Local Time) from KGVE Reporting Station
Overcast Overcast  
Wind Chill: 34°   Ceiling: 700
Heat Index: 38°   Visibility: 10mi
Dew Point: 37°   Wind: 5mph
Humidity: 95%   Direction: 40°NE
Pressure: 29.73"   Gusts: NA
Location:  37.99°N, 78.25°W
Report Text: KGVE 261615Z AUTO 04004KT 10SM BKN007 OVC011 03/03 A2973 RMK AO1 T00330026
Loading
Personal Weather Stations






























Interactive Weather Map New forecast layout! Learn more

10-Day Weather Forecast

Advertisements
Track Severe Weather on mobile